PWSweather.com
Personal Weather Stations
Station Observations
11227
Alkmaarcentrum, AlkmaarNL 1813VP

AlkmaarcentrumAlkmaarNL 1813VP

Lat: 52.624433, Lon: 4.758153

Elevation: 0.5

Station Type: davis vantage pro2

Latest ConditionsUpdated 6:07:29 PM GMT+01:01 Thursday, Apr 25, 2019
Currently Today's Max Today's Min Today's Average
Temperature 56.8°F13.8°C 65.1°F18.4°C 48.4°F9.1°C 55.4°F13.0°C
Dew Point 52.3°F11.3°C 53.2°F11.8°C 46.6°F8.1°C 49.9°F9.9°C
Winds 4.5 mph S7.2 kmh S 13.0 mph -20.9 kmh - - 5.8 mph 9.3 kmh
Wind Gusts 9.6 mph15.4 kmh 22.4 mph36.0 kmh - -
Humidity 85% 94% 59% 83%
Pressure 29.70 in1005.8 mb 29.71 in1006.1 mb 29.59 in1002.0 mb -
Precipitation - 0.13 in3.3 mm - -
Hour Temp Dew Point Humidity Winds Wind Gusts Pressure Precip Precip Rate Daily Precip Total
06:07 PM 56.8°F13.8°C 52.3°F11.3°C 85% 4.5 mph S7.2 kmh S 9.6 mph15.4 kmh 29.70 in1005.8 mb 0.00 in0.0 mm 0.00 in0.0 mm 0.13 in3.3 mm
06:02 PM 56.8°F13.8°C 52.7°F11.5°C 86% 1.8 mph SSE2.9 kmh SSE 12.8 mph20.6 kmh 29.70 in1005.8 mb 0.00 in0.0 mm 0.00 in0.0 mm 0.13 in3.3 mm
05:57 PM 56.7°F13.7°C 52.5°F11.4°C 86% 7.6 mph S12.2 kmh S 12.8 mph20.6 kmh 29.71 in1006.1 mb 0.00 in0.0 mm 0.00 in0.0 mm 0.13 in3.3 mm
05:52 PM 56.7°F13.7°C 52.5°F11.4°C 86% 6.5 mph SE10.5 kmh SE 11.6 mph18.7 kmh 29.71 in1006.1 mb 0.00 in0.0 mm 0.00 in0.0 mm 0.13 in3.3 mm
05:47 PM 56.7°F13.7°C 52.5°F11.4°C 86% 6.7 mph SW10.8 kmh SW 14.8 mph23.8 kmh 29.71 in1006.1 mb 0.00 in0.0 mm 0.00 in0.0 mm 0.13 in3.3 mm
05:42 PM 56.7°F13.7°C 52.5°F11.4°C 86% 6.7 mph SE10.8 kmh SE 15.9 mph25.6 kmh 29.70 in1005.8 mb 0.00 in0.0 mm 0.00 in0.0 mm 0.13 in3.3 mm
05:37 PM 56.7°F13.7°C 52.5°F11.4°C 86% 2.9 mph S4.7 kmh S 14.8 mph23.8 kmh 29.70 in1005.8 mb 0.00 in0.0 mm 0.00 in0.0 mm 0.13 in3.3 mm
05:32 PM 56.5°F13.6°C 52.7°F11.5°C 87% 4.3 mph SSE6.9 kmh SSE 9.6 mph15.4 kmh 29.70 in1005.8 mb 0.00 in0.0 mm 0.00 in0.0 mm 0.13 in3.3 mm
05:27 PM 56.5°F13.6°C 52.7°F11.5°C 87% 4.0 mph S6.4 kmh S 11.6 mph18.7 kmh 29.69 in1005.4 mb 0.00 in0.0 mm 0.00 in0.0 mm 0.13 in3.3 mm
05:22 PM 56.3°F13.5°C 52.9°F11.6°C 88% 4.0 mph S6.4 kmh S 14.8 mph23.8 kmh 29.69 in1005.4 mb 0.01 in0.3 mm 0.00 in0.0 mm 0.13 in3.3 mm
05:17 PM 56.1°F13.4°C 52.9°F11.6°C 89% 6.0 mph SSW9.7 kmh SSW 12.8 mph20.6 kmh 29.69 in1005.4 mb 0.01 in0.3 mm 0.00 in0.0 mm 0.13 in3.3 mm
05:12 PM 55.9°F13.3°C 52.7°F11.5°C 89% 4.9 mph SSW7.9 kmh SSW 9.6 mph15.4 kmh 29.69 in1005.4 mb 0.01 in0.3 mm 0.00 in0.0 mm 0.13 in3.3 mm
05:07 PM 55.8°F13.2°C 52.5°F11.4°C 89% 4.7 mph S7.6 kmh S 13.9 mph22.4 kmh 29.68 in1005.1 mb 0.01 in0.3 mm 0.00 in0.0 mm 0.13 in3.3 mm
05:02 PM 55.9°F13.3°C 53.1°F11.7°C 90% 4.5 mph S7.2 kmh S 13.9 mph22.4 kmh 29.69 in1005.4 mb 0.02 in0.5 mm 0.00 in0.0 mm 0.13 in3.3 mm
04:57 PM 55.9°F13.3°C 53.1°F11.7°C 90% 4.3 mph SSW6.9 kmh SSW 10.5 mph16.9 kmh 29.69 in1005.4 mb 0.02 in0.5 mm 0.00 in0.0 mm 0.13 in3.3 mm
04:52 PM 55.8°F13.2°C 53.2°F11.8°C 91% 1.1 mph E1.8 kmh E 7.4 mph11.9 kmh 29.69 in1005.4 mb 0.05 in1.3 mm 0.00 in0.0 mm 0.13 in3.3 mm
04:47 PM 55.6°F13.1°C 52.7°F11.5°C 90% 2.2 mph SSE3.5 kmh SSE 6.3 mph10.1 kmh 29.69 in1005.4 mb 0.06 in1.5 mm 0.00 in0.0 mm 0.13 in3.3 mm
04:42 PM 55.4°F13.0°C 52.5°F11.4°C 90% 3.1 mph SW5.0 kmh SW 7.4 mph11.9 kmh 29.69 in1005.4 mb 0.06 in1.5 mm 0.00 in0.0 mm 0.13 in3.3 mm
04:37 PM 55.2°F12.9°C 52.3°F11.3°C 90% 4.7 mph S7.6 kmh S 10.5 mph16.9 kmh 29.69 in1005.4 mb 0.06 in1.5 mm 0.00 in0.0 mm 0.13 in3.3 mm
04:32 PM 55.0°F12.8°C 51.8°F11.0°C 89% 5.6 mph SE9.0 kmh SE 9.6 mph15.4 kmh 29.69 in1005.4 mb 0.06 in1.5 mm 0.00 in0.0 mm 0.13 in3.3 mm
04:27 PM 55.2°F12.9°C 52.0°F11.1°C 89% 6.9 mph SSW11.1 kmh SSW 10.5 mph16.9 kmh 29.69 in1005.4 mb 0.07 in1.8 mm 0.12 in3.0 mm 0.13 in3.3 mm
04:22 PM 55.2°F12.9°C 51.8°F11.0°C 88% 2.9 mph SE4.7 kmh SE 12.8 mph20.6 kmh 29.69 in1005.4 mb 0.06 in1.5 mm 0.00 in0.0 mm 0.13 in3.3 mm
04:17 PM 55.6°F13.1°C 52.2°F11.2°C 88% 2.5 mph SSE4.0 kmh SSE 8.5 mph13.7 kmh 29.69 in1005.4 mb 0.06 in1.5 mm 0.00 in0.0 mm 0.13 in3.3 mm
04:12 PM 55.8°F13.2°C 52.0°F11.1°C 87% 3.4 mph E5.5 kmh E 7.4 mph11.9 kmh 29.69 in1005.4 mb 0.06 in1.5 mm 0.00 in0.0 mm 0.13 in3.3 mm
04:07 PM 55.9°F13.3°C 51.8°F11.0°C 86% 2.9 mph SE4.7 kmh SE 7.4 mph11.9 kmh 29.69 in1005.4 mb 0.06 in1.5 mm 0.00 in0.0 mm 0.13 in3.3 mm
04:02 PM 56.3°F13.5°C 51.4°F10.8°C 84% 4.0 mph S6.4 kmh S 10.5 mph16.9 kmh 29.69 in1005.4 mb 0.06 in1.5 mm 0.01 in0.3 mm 0.12 in3.0 mm
03:57 PM 57.0°F13.9°C 52.0°F11.1°C 83% 6.3 mph ESE10.1 kmh ESE 13.9 mph22.4 kmh 29.69 in1005.4 mb 0.05 in1.3 mm 0.36 in9.1 mm 0.11 in2.8 mm
03:52 PM 58.1°F14.5°C 52.7°F11.5°C 82% 10.7 mph WSW17.2 kmh WSW 22.4 mph36.0 kmh 29.68 in1005.1 mb 0.02 in0.5 mm 0.12 in3.0 mm 0.09 in2.3 mm
03:47 PM 59.0°F15.0°C 52.9°F11.6°C 80% 6.0 mph SSW9.7 kmh SSW 14.8 mph23.8 kmh 29.68 in1005.1 mb 0.01 in0.3 mm 0.00 in0.0 mm 0.07 in1.8 mm
03:42 PM 59.5°F15.3°C 52.7°F11.5°C 78% 6.5 mph SW10.5 kmh SW 11.6 mph18.7 kmh 29.67 in1004.7 mb 0.01 in0.3 mm 0.00 in0.0 mm 0.07 in1.8 mm
03:37 PM 60.4°F15.8°C 52.9°F11.6°C 76% 6.9 mph E11.1 kmh E 11.6 mph18.7 kmh 29.67 in1004.7 mb 0.01 in0.3 mm 0.00 in0.0 mm 0.07 in1.8 mm
03:32 PM 61.2°F16.2°C 52.5°F11.4°C 73% 5.4 mph W8.7 kmh W 12.8 mph20.6 kmh 29.67 in1004.7 mb 0.01 in0.3 mm 0.12 in3.0 mm 0.07 in1.8 mm
03:27 PM 62.2°F16.8°C 52.3°F11.3°C 70% 7.6 mph SSE12.2 kmh SSE 18.1 mph29.1 kmh 29.67 in1004.7 mb 0.00 in0.0 mm 0.00 in0.0 mm 0.06 in1.5 mm
03:22 PM 63.0°F17.2°C 52.7°F11.5°C 69% 6.0 mph SW9.7 kmh SW 13.9 mph22.4 kmh 29.66 in1004.4 mb 0.00 in0.0 mm 0.00 in0.0 mm 0.06 in1.5 mm
03:17 PM 63.3°F17.4°C 51.8°F11.0°C 66% 7.2 mph SSE11.6 kmh SSE 17.0 mph27.4 kmh 29.65 in1004.1 mb 0.00 in0.0 mm 0.00 in0.0 mm 0.06 in1.5 mm
03:12 PM 63.7°F17.6°C 51.3°F10.7°C 64% 7.4 mph SSE11.9 kmh SSE 19.0 mph30.6 kmh 29.65 in1004.1 mb 0.00 in0.0 mm 0.00 in0.0 mm 0.06 in1.5 mm
03:07 PM 63.9°F17.7°C 51.4°F10.8°C 64% 7.8 mph S12.6 kmh S 15.9 mph25.6 kmh 29.65 in1004.1 mb 0.00 in0.0 mm 0.00 in0.0 mm 0.06 in1.5 mm
03:02 PM 64.0°F17.8°C 51.6°F10.9°C 64% 8.7 mph SSE14.0 kmh SSE 14.8 mph23.8 kmh 29.65 in1004.1 mb 0.00 in0.0 mm 0.00 in0.0 mm 0.06 in1.5 mm
02:57 PM 64.0°F17.8°C 51.3°F10.7°C 63% 6.0 mph SSE9.7 kmh SSE 14.8 mph23.8 kmh 29.65 in1004.1 mb 0.00 in0.0 mm 0.00 in0.0 mm 0.06 in1.5 mm
02:52 PM 63.9°F17.7°C 51.1°F10.6°C 63% 8.7 mph SSE14.0 kmh SSE 15.9 mph25.6 kmh 29.65 in1004.1 mb 0.00 in0.0 mm 0.00 in0.0 mm 0.06 in1.5 mm
02:47 PM 63.7°F17.6°C 50.4°F10.2°C 62% 5.8 mph SE9.3 kmh SE 15.9 mph25.6 kmh 29.65 in1004.1 mb 0.00 in0.0 mm 0.00 in0.0 mm 0.06 in1.5 mm
02:42 PM 63.7°F17.6°C 50.9°F10.5°C 63% 7.4 mph SE11.9 kmh SE 14.8 mph23.8 kmh 29.65 in1004.1 mb 0.00 in0.0 mm 0.00 in0.0 mm 0.06 in1.5 mm
02:37 PM 63.5°F17.5°C 50.2°F10.1°C 62% 7.8 mph SSE12.6 kmh SSE 14.8 mph23.8 kmh 29.65 in1004.1 mb 0.00 in0.0 mm 0.00 in0.0 mm 0.06 in1.5 mm
02:32 PM 63.3°F17.4°C 50.0°F10.0°C 62% 5.6 mph SSW9.0 kmh SSW 15.9 mph25.6 kmh 29.65 in1004.1 mb 0.00 in0.0 mm 0.00 in0.0 mm 0.06 in1.5 mm
02:27 PM 63.5°F17.5°C 50.2°F10.1°C 62% 7.6 mph SSE12.2 kmh SSE 15.9 mph25.6 kmh 29.65 in1004.1 mb 0.00 in0.0 mm 0.00 in0.0 mm 0.06 in1.5 mm
02:22 PM 63.7°F17.6°C 50.4°F10.2°C 62% 7.2 mph SE11.6 kmh SE 14.8 mph23.8 kmh 29.65 in1004.1 mb 0.00 in0.0 mm 0.00 in0.0 mm 0.06 in1.5 mm
02:17 PM 63.9°F17.7°C 50.2°F10.1°C 61% 9.2 mph SE14.8 kmh SE 15.9 mph25.6 kmh 29.66 in1004.4 mb 0.00 in0.0 mm 0.00 in0.0 mm 0.06 in1.5 mm
02:12 PM 64.0°F17.8°C 50.4°F10.2°C 61% 10.7 mph SSE17.2 kmh SSE 18.1 mph29.1 kmh 29.66 in1004.4 mb 0.00 in0.0 mm 0.00 in0.0 mm 0.06 in1.5 mm
02:07 PM 64.4°F18.0°C 50.7°F10.4°C 61% 8.9 mph S14.3 kmh S 15.9 mph25.6 kmh 29.66 in1004.4 mb 0.00 in0.0 mm 0.00 in0.0 mm 0.06 in1.5 mm
02:02 PM 64.4°F18.0°C 50.7°F10.4°C 61% 8.5 mph ESE13.7 kmh ESE 14.8 mph23.8 kmh 29.66 in1004.4 mb 0.00 in0.0 mm 0.00 in0.0 mm 0.06 in1.5 mm
01:57 PM 64.2°F17.9°C 50.5°F10.3°C 61% 7.2 mph SE11.6 kmh SE 17.0 mph27.4 kmh 29.66 in1004.4 mb 0.00 in0.0 mm 0.00 in0.0 mm 0.06 in1.5 mm
01:52 PM 64.0°F17.8°C 50.4°F10.2°C 61% 10.3 mph SSE16.6 kmh SSE 18.1 mph29.1 kmh 29.66 in1004.4 mb 0.00 in0.0 mm 0.00 in0.0 mm 0.06 in1.5 mm
01:47 PM 64.0°F17.8°C 50.4°F10.2°C 61% 6.7 mph SSE10.8 kmh SSE 20.1 mph32.3 kmh 29.65 in1004.1 mb 0.00 in0.0 mm 0.00 in0.0 mm 0.06 in1.5 mm
01:42 PM 64.0°F17.8°C 49.8°F9.9°C 60% 10.5 mph S16.9 kmh S 20.1 mph32.3 kmh 29.65 in1004.1 mb 0.00 in0.0 mm 0.00 in0.0 mm 0.06 in1.5 mm
01:37 PM 64.2°F17.9°C 50.0°F10.0°C 60% 10.1 mph SE16.3 kmh SE 18.1 mph29.1 kmh 29.65 in1004.1 mb 0.00 in0.0 mm 0.00 in0.0 mm 0.06 in1.5 mm
01:32 PM 64.6°F18.1°C 50.4°F10.2°C 60% 13.0 mph S20.9 kmh S 22.4 mph36.0 kmh 29.65 in1004.1 mb 0.00 in0.0 mm 0.00 in0.0 mm 0.06 in1.5 mm
01:27 PM 64.2°F17.9°C 50.9°F10.5°C 62% 7.2 mph SE11.6 kmh SE 12.8 mph20.6 kmh 29.65 in1004.1 mb 0.00 in0.0 mm 0.00 in0.0 mm 0.06 in1.5 mm
01:22 PM 64.4°F18.0°C 50.2°F10.1°C 60% 8.7 mph S14.0 kmh S 19.0 mph30.6 kmh 29.65 in1004.1 mb 0.00 in0.0 mm 0.00 in0.0 mm 0.06 in1.5 mm
01:17 PM 64.8°F18.2°C 50.5°F10.3°C 60% 10.5 mph SE16.9 kmh SE 15.9 mph25.6 kmh 29.65 in1004.1 mb 0.00 in0.0 mm 0.00 in0.0 mm 0.06 in1.5 mm
01:12 PM 65.1°F18.4°C 50.4°F10.2°C 59% 8.7 mph ESE14.0 kmh ESE 19.0 mph30.6 kmh 29.65 in1004.1 mb 0.00 in0.0 mm 0.00 in0.0 mm 0.06 in1.5 mm
01:07 PM 64.8°F18.2°C 51.8°F11.0°C 63% 6.7 mph SSE10.8 kmh SSE 14.8 mph23.8 kmh 29.65 in1004.1 mb 0.00 in0.0 mm 0.00 in0.0 mm 0.06 in1.5 mm
01:02 PM 63.9°F17.7°C 50.5°F10.3°C 62% 5.8 mph SE9.3 kmh SE 17.0 mph27.4 kmh 29.65 in1004.1 mb 0.00 in0.0 mm 0.00 in0.0 mm 0.06 in1.5 mm
12:57 PM 63.9°F17.7°C 50.5°F10.3°C 62% 7.6 mph SSW12.2 kmh SSW 20.1 mph32.3 kmh 29.65 in1004.1 mb 0.00 in0.0 mm 0.00 in0.0 mm 0.06 in1.5 mm
12:52 PM 63.9°F17.7°C 51.1°F10.6°C 63% 10.1 mph SSE16.3 kmh SSE 17.0 mph27.4 kmh 29.65 in1004.1 mb 0.00 in0.0 mm 0.00 in0.0 mm 0.06 in1.5 mm
12:47 PM 63.7°F17.6°C 51.6°F10.9°C 65% 9.4 mph ESE15.1 kmh ESE 15.9 mph25.6 kmh 29.65 in1004.1 mb 0.00 in0.0 mm 0.00 in0.0 mm 0.06 in1.5 mm
12:42 PM 63.7°F17.6°C 50.9°F10.5°C 63% 9.8 mph SE15.8 kmh SE 18.1 mph29.1 kmh 29.65 in1004.1 mb 0.00 in0.0 mm 0.00 in0.0 mm 0.06 in1.5 mm
12:37 PM 63.1°F17.3°C 51.6°F10.9°C 66% 7.8 mph SE12.6 kmh SE 14.8 mph23.8 kmh 29.65 in1004.1 mb 0.00 in0.0 mm 0.00 in0.0 mm 0.06 in1.5 mm
12:32 PM 62.8°F17.1°C 50.9°F10.5°C 65% 9.4 mph S15.1 kmh S 18.1 mph29.1 kmh 29.65 in1004.1 mb 0.00 in0.0 mm 0.00 in0.0 mm 0.06 in1.5 mm
12:27 PM 62.8°F17.1°C 50.4°F10.2°C 64% 10.5 mph SSE16.9 kmh SSE 18.1 mph29.1 kmh 29.65 in1004.1 mb 0.00 in0.0 mm 0.00 in0.0 mm 0.06 in1.5 mm
12:22 PM 63.1°F17.3°C 51.3°F10.7°C 65% 7.2 mph SE11.6 kmh SE 18.1 mph29.1 kmh 29.65 in1004.1 mb 0.00 in0.0 mm 0.00 in0.0 mm 0.06 in1.5 mm
12:17 PM 63.1°F17.3°C 51.6°F10.9°C 66% 6.5 mph SE10.5 kmh SE 20.1 mph32.3 kmh 29.65 in1004.1 mb 0.00 in0.0 mm 0.00 in0.0 mm 0.06 in1.5 mm
12:12 PM 62.8°F17.1°C 50.9°F10.5°C 65% 7.4 mph SE11.9 kmh SE 18.1 mph29.1 kmh 29.66 in1004.4 mb 0.00 in0.0 mm 0.00 in0.0 mm 0.06 in1.5 mm
12:07 PM 62.4°F16.9°C 50.9°F10.5°C 66% 9.6 mph SE15.4 kmh SE 17.0 mph27.4 kmh 29.65 in1004.1 mb 0.00 in0.0 mm 0.00 in0.0 mm 0.06 in1.5 mm
12:02 PM 62.2°F16.8°C 50.4°F10.2°C 65% 9.4 mph ESE15.1 kmh ESE 15.9 mph25.6 kmh 29.65 in1004.1 mb 0.00 in0.0 mm 0.00 in0.0 mm 0.06 in1.5 mm
11:57 AM 62.1°F16.7°C 50.2°F10.1°C 65% 12.8 mph SE20.6 kmh SE 20.1 mph32.3 kmh 29.66 in1004.4 mb 0.00 in0.0 mm 0.00 in0.0 mm 0.06 in1.5 mm
11:52 AM 62.1°F16.7°C 50.5°F10.3°C 66% 8.1 mph SE13.0 kmh SE 15.9 mph25.6 kmh 29.65 in1004.1 mb 0.00 in0.0 mm 0.00 in0.0 mm 0.06 in1.5 mm
11:47 AM 62.1°F16.7°C 50.5°F10.3°C 66% 7.4 mph SE11.9 kmh SE 17.0 mph27.4 kmh 29.66 in1004.4 mb 0.00 in0.0 mm 0.00 in0.0 mm 0.06 in1.5 mm
11:42 AM 62.1°F16.7°C 50.5°F10.3°C 66% 9.4 mph E15.1 kmh E 18.1 mph29.1 kmh 29.66 in1004.4 mb 0.00 in0.0 mm 0.00 in0.0 mm 0.06 in1.5 mm
11:37 AM 62.1°F16.7°C 50.5°F10.3°C 66% 11.0 mph SE17.7 kmh SE 18.1 mph29.1 kmh 29.67 in1004.7 mb 0.00 in0.0 mm 0.00 in0.0 mm 0.06 in1.5 mm
11:32 AM 61.9°F16.6°C 51.3°F10.7°C 68% 8.3 mph ESE13.4 kmh ESE 13.9 mph22.4 kmh 29.67 in1004.7 mb 0.00 in0.0 mm 0.00 in0.0 mm 0.06 in1.5 mm
11:27 AM 61.2°F16.2°C 51.3°F10.7°C 70% 9.8 mph E15.8 kmh E 14.8 mph23.8 kmh 29.66 in1004.4 mb 0.00 in0.0 mm 0.00 in0.0 mm 0.06 in1.5 mm
11:22 AM 60.6°F15.9°C 50.7°F10.4°C 70% 9.2 mph SE14.8 kmh SE 15.9 mph25.6 kmh 29.66 in1004.4 mb 0.00 in0.0 mm 0.00 in0.0 mm 0.06 in1.5 mm
11:17 AM 60.6°F15.9°C 51.1°F10.6°C 71% 9.6 mph SE15.4 kmh SE 14.8 mph23.8 kmh 29.66 in1004.4 mb 0.00 in0.0 mm 0.00 in0.0 mm 0.06 in1.5 mm
11:12 AM 60.4°F15.8°C 51.1°F10.6°C 71% 7.4 mph SE11.9 kmh SE 17.0 mph27.4 kmh 29.67 in1004.7 mb 0.00 in0.0 mm 0.00 in0.0 mm 0.06 in1.5 mm
11:07 AM 60.6°F15.9°C 51.1°F10.6°C 71% 8.3 mph E13.4 kmh E 13.9 mph22.4 kmh 29.67 in1004.7 mb 0.00 in0.0 mm 0.00 in0.0 mm 0.06 in1.5 mm
11:02 AM 60.4°F15.8°C 51.8°F11.0°C 73% 5.4 mph S8.7 kmh S 10.5 mph16.9 kmh 29.67 in1004.7 mb 0.00 in0.0 mm 0.00 in0.0 mm 0.06 in1.5 mm
10:57 AM 60.4°F15.8°C 51.4°F10.8°C 72% 5.8 mph ESE9.3 kmh ESE 11.6 mph18.7 kmh 29.67 in1004.7 mb 0.00 in0.0 mm 0.00 in0.0 mm 0.06 in1.5 mm
10:52 AM 60.4°F15.8°C 51.4°F10.8°C 72% 8.1 mph SE13.0 kmh SE 15.9 mph25.6 kmh 29.66 in1004.4 mb 0.00 in0.0 mm 0.00 in0.0 mm 0.06 in1.5 mm
10:47 AM 60.3°F15.7°C 52.0°F11.1°C 74% 8.3 mph S13.4 kmh S 13.9 mph22.4 kmh 29.66 in1004.4 mb 0.00 in0.0 mm 0.00 in0.0 mm 0.06 in1.5 mm
10:42 AM 59.4°F15.2°C 51.1°F10.6°C 74% 6.7 mph SE10.8 kmh SE 14.8 mph23.8 kmh 29.67 in1004.7 mb 0.00 in0.0 mm 0.00 in0.0 mm 0.06 in1.5 mm
10:37 AM 58.6°F14.8°C 51.1°F10.6°C 76% 8.3 mph SE13.4 kmh SE 17.0 mph27.4 kmh 29.66 in1004.4 mb 0.00 in0.0 mm 0.00 in0.0 mm 0.06 in1.5 mm
10:32 AM 57.7°F14.3°C 50.2°F10.1°C 76% 8.7 mph SSE14.0 kmh SSE 14.8 mph23.8 kmh 29.66 in1004.4 mb 0.00 in0.0 mm 0.00 in0.0 mm 0.06 in1.5 mm
10:27 AM 57.2°F14.0°C 50.0°F10.0°C 77% 8.9 mph SE14.3 kmh SE 15.9 mph25.6 kmh 29.66 in1004.4 mb 0.00 in0.0 mm 0.00 in0.0 mm 0.06 in1.5 mm
10:22 AM 57.0°F13.9°C 49.8°F9.9°C 77% 6.5 mph SE10.5 kmh SE 10.5 mph16.9 kmh 29.66 in1004.4 mb 0.00 in0.0 mm 0.00 in0.0 mm 0.06 in1.5 mm
10:17 AM 56.8°F13.8°C 50.0°F10.0°C 78% 7.6 mph SE12.2 kmh SE 17.0 mph27.4 kmh 29.66 in1004.4 mb 0.00 in0.0 mm 0.00 in0.0 mm 0.06 in1.5 mm
10:12 AM 56.5°F13.6°C 50.4°F10.2°C 80% 6.5 mph S10.5 kmh S 13.9 mph22.4 kmh 29.66 in1004.4 mb 0.00 in0.0 mm 0.00 in0.0 mm 0.06 in1.5 mm
10:07 AM 55.9°F13.3°C 49.5°F9.7°C 79% 8.9 mph SSW14.3 kmh SSW 15.9 mph25.6 kmh 29.66 in1004.4 mb 0.00 in0.0 mm 0.00 in0.0 mm 0.06 in1.5 mm
10:02 AM 55.6°F13.1°C 49.5°F9.7°C 80% 9.6 mph S15.4 kmh S 13.9 mph22.4 kmh 29.66 in1004.4 mb 0.00 in0.0 mm 0.00 in0.0 mm 0.06 in1.5 mm
09:57 AM 55.0°F12.8°C 49.3°F9.6°C 81% 5.8 mph SE9.3 kmh SE 9.6 mph15.4 kmh 29.66 in1004.4 mb 0.00 in0.0 mm 0.00 in0.0 mm 0.06 in1.5 mm
09:52 AM 54.7°F12.6°C 48.9°F9.4°C 81% 6.3 mph S10.1 kmh S 11.6 mph18.7 kmh 29.66 in1004.4 mb 0.00 in0.0 mm 0.00 in0.0 mm 0.06 in1.5 mm
09:47 AM 54.3°F12.4°C 48.6°F9.2°C 81% 5.4 mph SSE8.7 kmh SSE 12.8 mph20.6 kmh 29.66 in1004.4 mb 0.00 in0.0 mm 0.00 in0.0 mm 0.06 in1.5 mm
09:42 AM 54.1°F12.3°C 48.7°F9.3°C 82% 5.8 mph SE9.3 kmh SE 10.5 mph16.9 kmh 29.66 in1004.4 mb 0.00 in0.0 mm 0.00 in0.0 mm 0.06 in1.5 mm
09:37 AM 54.0°F12.2°C 48.6°F9.2°C 82% 6.5 mph SSE10.5 kmh SSE 12.8 mph20.6 kmh 29.66 in1004.4 mb 0.00 in0.0 mm 0.00 in0.0 mm 0.06 in1.5 mm
09:32 AM 54.0°F12.2°C 48.2°F9.0°C 81% 7.8 mph SSE12.6 kmh SSE 13.9 mph22.4 kmh 29.67 in1004.7 mb 0.00 in0.0 mm 0.00 in0.0 mm 0.06 in1.5 mm
09:27 AM 54.0°F12.2°C 48.2°F9.0°C 81% 6.7 mph S10.8 kmh S 12.8 mph20.6 kmh 29.67 in1004.7 mb 0.00 in0.0 mm 0.00 in0.0 mm 0.06 in1.5 mm
09:22 AM 54.0°F12.2°C 48.2°F9.0°C 81% 6.5 mph SSE10.5 kmh SSE 12.8 mph20.6 kmh 29.67 in1004.7 mb 0.00 in0.0 mm 0.00 in0.0 mm 0.06 in1.5 mm
09:17 AM 54.0°F12.2°C 48.2°F9.0°C 81% 4.5 mph SE7.2 kmh SE 13.9 mph22.4 kmh 29.67 in1004.7 mb 0.00 in0.0 mm 0.00 in0.0 mm 0.06 in1.5 mm
09:12 AM 54.0°F12.2°C 48.2°F9.0°C 81% 5.1 mph S8.2 kmh S 11.6 mph18.7 kmh 29.67 in1004.7 mb 0.00 in0.0 mm 0.00 in0.0 mm 0.06 in1.5 mm
09:07 AM 54.0°F12.2°C 48.6°F9.2°C 82% 6.7 mph SE10.8 kmh SE 13.9 mph22.4 kmh 29.67 in1004.7 mb 0.00 in0.0 mm 0.00 in0.0 mm 0.06 in1.5 mm
09:02 AM 54.0°F12.2°C 48.6°F9.2°C 82% 5.1 mph SSE8.2 kmh SSE 9.6 mph15.4 kmh 29.66 in1004.4 mb 0.00 in0.0 mm 0.00 in0.0 mm 0.06 in1.5 mm
08:57 AM 54.0°F12.2°C 48.6°F9.2°C 82% 3.8 mph SSE6.1 kmh SSE 8.5 mph13.7 kmh 29.66 in1004.4 mb 0.00 in0.0 mm 0.00 in0.0 mm 0.06 in1.5 mm
08:52 AM 54.0°F12.2°C 48.2°F9.0°C 81% 6.5 mph SSE10.5 kmh SSE 11.6 mph18.7 kmh 29.66 in1004.4 mb 0.00 in0.0 mm 0.00 in0.0 mm 0.06 in1.5 mm
08:47 AM 54.1°F12.3°C 48.7°F9.3°C 82% 5.8 mph SE9.3 kmh SE 12.8 mph20.6 kmh 29.65 in1004.1 mb 0.00 in0.0 mm 0.00 in0.0 mm 0.06 in1.5 mm
08:42 AM 54.1°F12.3°C 49.1°F9.5°C 83% 3.8 mph SSW6.1 kmh SSW 9.6 mph15.4 kmh 29.65 in1004.1 mb 0.00 in0.0 mm 0.00 in0.0 mm 0.06 in1.5 mm
08:37 AM 54.1°F12.3°C 49.1°F9.5°C 83% 6.3 mph S10.1 kmh S 10.5 mph16.9 kmh 29.65 in1004.1 mb 0.00 in0.0 mm 0.00 in0.0 mm 0.06 in1.5 mm
08:32 AM 54.1°F12.3°C 49.5°F9.7°C 84% 5.1 mph SSE8.2 kmh SSE 8.5 mph13.7 kmh 29.65 in1004.1 mb 0.00 in0.0 mm 0.00 in0.0 mm 0.06 in1.5 mm
08:27 AM 54.0°F12.2°C 49.6°F9.8°C 85% 4.5 mph SSE7.2 kmh SSE 10.5 mph16.9 kmh 29.65 in1004.1 mb 0.00 in0.0 mm 0.00 in0.0 mm 0.06 in1.5 mm
08:22 AM 53.8°F12.1°C 49.6°F9.8°C 86% 4.9 mph SE7.9 kmh SE 10.5 mph16.9 kmh 29.64 in1003.7 mb 0.00 in0.0 mm 0.00 in0.0 mm 0.06 in1.5 mm
08:17 AM 53.4°F11.9°C 49.3°F9.6°C 86% 4.7 mph SSE7.6 kmh SSE 8.5 mph13.7 kmh 29.64 in1003.7 mb 0.00 in0.0 mm 0.00 in0.0 mm 0.06 in1.5 mm
08:12 AM 53.1°F11.7°C 49.3°F9.6°C 87% 7.4 mph SE11.9 kmh SE 13.9 mph22.4 kmh 29.64 in1003.7 mb 0.00 in0.0 mm 0.00 in0.0 mm 0.06 in1.5 mm
08:07 AM 52.7°F11.5°C 49.3°F9.6°C 88% 6.9 mph SSE11.1 kmh SSE 12.8 mph20.6 kmh 29.63 in1003.4 mb 0.00 in0.0 mm 0.00 in0.0 mm 0.06 in1.5 mm
08:02 AM 52.3°F11.3°C 49.3°F9.6°C 89% 4.3 mph SSE6.9 kmh SSE 8.5 mph13.7 kmh 29.63 in1003.4 mb 0.00 in0.0 mm 0.00 in0.0 mm 0.06 in1.5 mm
07:57 AM 52.2°F11.2°C 49.3°F9.6°C 90% 3.8 mph SE6.1 kmh SE 10.5 mph16.9 kmh 29.63 in1003.4 mb 0.00 in0.0 mm 0.00 in0.0 mm 0.06 in1.5 mm
07:52 AM 51.8°F11.0°C 48.9°F9.4°C 90% 4.9 mph SSE7.9 kmh SSE 9.6 mph15.4 kmh 29.63 in1003.4 mb 0.00 in0.0 mm 0.00 in0.0 mm 0.06 in1.5 mm
07:47 AM 51.6°F10.9°C 48.7°F9.3°C 90% 4.3 mph S6.9 kmh S 11.6 mph18.7 kmh 29.63 in1003.4 mb 0.00 in0.0 mm 0.00 in0.0 mm 0.06 in1.5 mm
07:42 AM 51.4°F10.8°C 48.9°F9.4°C 91% 5.1 mph SE8.2 kmh SE 9.6 mph15.4 kmh 29.63 in1003.4 mb 0.00 in0.0 mm 0.00 in0.0 mm 0.06 in1.5 mm
07:37 AM 51.3°F10.7°C 48.7°F9.3°C 91% 6.3 mph E10.1 kmh E 9.6 mph15.4 kmh 29.63 in1003.4 mb 0.00 in0.0 mm 0.00 in0.0 mm 0.06 in1.5 mm
07:32 AM 51.1°F10.6°C 48.6°F9.2°C 91% 4.7 mph SSE7.6 kmh SSE 8.5 mph13.7 kmh 29.63 in1003.4 mb 0.00 in0.0 mm 0.00 in0.0 mm 0.06 in1.5 mm
07:27 AM 50.9°F10.5°C 48.4°F9.1°C 91% 4.7 mph SE7.6 kmh SE 9.6 mph15.4 kmh 29.63 in1003.4 mb 0.00 in0.0 mm 0.00 in0.0 mm 0.06 in1.5 mm
07:22 AM 50.7°F10.4°C 48.6°F9.2°C 92% 6.0 mph SE9.7 kmh SE 10.5 mph16.9 kmh 29.63 in1003.4 mb 0.00 in0.0 mm 0.00 in0.0 mm 0.06 in1.5 mm
07:17 AM 50.7°F10.4°C 48.6°F9.2°C 92% 5.1 mph SSE8.2 kmh SSE 11.6 mph18.7 kmh 29.63 in1003.4 mb 0.00 in0.0 mm 0.00 in0.0 mm 0.06 in1.5 mm
07:12 AM 50.5°F10.3°C 48.4°F9.1°C 92% 6.0 mph SE9.7 kmh SE 11.6 mph18.7 kmh 29.63 in1003.4 mb 0.00 in0.0 mm 0.00 in0.0 mm 0.06 in1.5 mm
07:07 AM 50.5°F10.3°C 48.4°F9.1°C 92% 6.3 mph SSE10.1 kmh SSE 9.6 mph15.4 kmh 29.63 in1003.4 mb 0.00 in0.0 mm 0.00 in0.0 mm 0.06 in1.5 mm
07:02 AM 50.5°F10.3°C 48.4°F9.1°C 92% 4.7 mph SE7.6 kmh SE 9.6 mph15.4 kmh 29.63 in1003.4 mb 0.00 in0.0 mm 0.00 in0.0 mm 0.06 in1.5 mm
06:57 AM 50.4°F10.2°C 48.4°F9.1°C 93% 4.5 mph SE7.2 kmh SE 11.6 mph18.7 kmh 29.63 in1003.4 mb 0.00 in0.0 mm 0.00 in0.0 mm 0.06 in1.5 mm
06:52 AM 50.4°F10.2°C 48.4°F9.1°C 93% 5.6 mph SE9.0 kmh SE 10.5 mph16.9 kmh 29.62 in1003.0 mb 0.00 in0.0 mm 0.00 in0.0 mm 0.06 in1.5 mm
06:47 AM 50.2°F10.1°C 48.2°F9.0°C 93% 6.7 mph SE10.8 kmh SE 11.6 mph18.7 kmh 29.62 in1003.0 mb 0.00 in0.0 mm 0.00 in0.0 mm 0.06 in1.5 mm
06:42 AM 50.2°F10.1°C 48.2°F9.0°C 93% 5.4 mph SE8.7 kmh SE 11.6 mph18.7 kmh 29.62 in1003.0 mb 0.00 in0.0 mm 0.00 in0.0 mm 0.06 in1.5 mm
06:37 AM 50.0°F10.0°C 48.4°F9.1°C 94% 4.7 mph S7.6 kmh S 8.5 mph13.7 kmh 29.62 in1003.0 mb 0.00 in0.0 mm 0.00 in0.0 mm 0.06 in1.5 mm
06:32 AM 49.8°F9.9°C 48.2°F9.0°C 94% 5.1 mph SE8.2 kmh SE 12.8 mph20.6 kmh 29.62 in1003.0 mb 0.00 in0.0 mm 0.00 in0.0 mm 0.06 in1.5 mm
06:27 AM 49.6°F9.8°C 48.0°F8.9°C 94% 7.2 mph SSE11.6 kmh SSE 14.8 mph23.8 kmh 29.62 in1003.0 mb 0.00 in0.0 mm 0.00 in0.0 mm 0.06 in1.5 mm
06:22 AM 49.5°F9.7°C 47.8°F8.8°C 94% 4.7 mph SE7.6 kmh SE 13.9 mph22.4 kmh 29.62 in1003.0 mb 0.00 in0.0 mm 0.00 in0.0 mm 0.06 in1.5 mm
06:16 AM 49.5°F9.7°C 47.8°F8.8°C 94% 7.4 mph SE11.9 kmh SE 13.9 mph22.4 kmh 29.62 in1003.0 mb 0.00 in0.0 mm 0.00 in0.0 mm 0.06 in1.5 mm
06:11 AM 49.3°F9.6°C 47.7°F8.7°C 94% 6.0 mph SSE9.7 kmh SSE 14.8 mph23.8 kmh 29.62 in1003.0 mb 0.00 in0.0 mm 0.00 in0.0 mm 0.06 in1.5 mm
06:06 AM 48.9°F9.4°C 47.3°F8.5°C 94% 5.4 mph SE8.7 kmh SE 10.5 mph16.9 kmh 29.62 in1003.0 mb 0.00 in0.0 mm 0.00 in0.0 mm 0.06 in1.5 mm
06:01 AM 48.7°F9.3°C 47.1°F8.4°C 94% 5.4 mph SE8.7 kmh SE 9.6 mph15.4 kmh 29.62 in1003.0 mb 0.00 in0.0 mm 0.00 in0.0 mm 0.06 in1.5 mm
05:56 AM 48.6°F9.2°C 46.9°F8.3°C 94% 4.5 mph SE7.2 kmh SE 8.5 mph13.7 kmh 29.62 in1003.0 mb 0.00 in0.0 mm 0.00 in0.0 mm 0.06 in1.5 mm
05:51 AM 48.4°F9.1°C 46.8°F8.2°C 94% 3.4 mph SE5.5 kmh SE 6.3 mph10.1 kmh 29.62 in1003.0 mb 0.00 in0.0 mm 0.00 in0.0 mm 0.06 in1.5 mm
05:46 AM 48.4°F9.1°C 46.8°F8.2°C 94% 3.4 mph SE5.5 kmh SE 6.3 mph10.1 kmh 29.61 in1002.7 mb 0.00 in0.0 mm 0.00 in0.0 mm 0.06 in1.5 mm
05:41 AM 48.4°F9.1°C 46.8°F8.2°C 94% 3.6 mph SE5.8 kmh SE 7.4 mph11.9 kmh 29.61 in1002.7 mb 0.00 in0.0 mm 0.00 in0.0 mm 0.06 in1.5 mm
05:36 AM 48.4°F9.1°C 46.8°F8.2°C 94% 2.9 mph ESE4.7 kmh ESE 7.4 mph11.9 kmh 29.61 in1002.7 mb 0.00 in0.0 mm 0.00 in0.0 mm 0.06 in1.5 mm
05:31 AM 48.6°F9.2°C 46.9°F8.3°C 94% 3.6 mph ESE5.8 kmh ESE 7.4 mph11.9 kmh 29.61 in1002.7 mb 0.00 in0.0 mm 0.00 in0.0 mm 0.06 in1.5 mm
05:26 AM 48.6°F9.2°C 46.6°F8.1°C 93% 3.4 mph ESE5.5 kmh ESE 6.3 mph10.1 kmh 29.61 in1002.7 mb 0.00 in0.0 mm 0.00 in0.0 mm 0.06 in1.5 mm
05:21 AM 48.6°F9.2°C 46.6°F8.1°C 93% 3.6 mph SE5.8 kmh SE 7.4 mph11.9 kmh 29.62 in1003.0 mb 0.00 in0.0 mm 0.00 in0.0 mm 0.06 in1.5 mm
05:16 AM 48.6°F9.2°C 46.6°F8.1°C 93% 3.6 mph SE5.8 kmh SE 7.4 mph11.9 kmh 29.61 in1002.7 mb 0.00 in0.0 mm 0.00 in0.0 mm 0.06 in1.5 mm
05:11 AM 48.6°F9.2°C 46.6°F8.1°C 93% 4.0 mph SE6.4 kmh SE 8.5 mph13.7 kmh 29.61 in1002.7 mb 0.00 in0.0 mm 0.00 in0.0 mm 0.06 in1.5 mm
05:06 AM 48.6°F9.2°C 46.6°F8.1°C 93% 3.6 mph ESE5.8 kmh ESE 7.4 mph11.9 kmh 29.61 in1002.7 mb 0.00 in0.0 mm 0.00 in0.0 mm 0.06 in1.5 mm
05:01 AM 48.6°F9.2°C 46.6°F8.1°C 93% 4.3 mph S6.9 kmh S 7.4 mph11.9 kmh 29.61 in1002.7 mb 0.00 in0.0 mm 0.00 in0.0 mm 0.06 in1.5 mm
04:56 AM 48.7°F9.3°C 46.8°F8.2°C 93% 4.3 mph SSE6.9 kmh SSE 8.5 mph13.7 kmh 29.62 in1003.0 mb 0.00 in0.0 mm 0.00 in0.0 mm 0.06 in1.5 mm
04:51 AM 48.7°F9.3°C 46.8°F8.2°C 93% 3.8 mph SE6.1 kmh SE 8.5 mph13.7 kmh 29.62 in1003.0 mb 0.00 in0.0 mm 0.00 in0.0 mm 0.06 in1.5 mm
04:46 AM 48.7°F9.3°C 46.8°F8.2°C 93% 4.3 mph SSE6.9 kmh SSE 9.6 mph15.4 kmh 29.62 in1003.0 mb 0.00 in0.0 mm 0.00 in0.0 mm 0.06 in1.5 mm
04:41 AM 48.6°F9.2°C 46.6°F8.1°C 93% 4.3 mph SE6.9 kmh SE 7.4 mph11.9 kmh 29.62 in1003.0 mb 0.00 in0.0 mm 0.00 in0.0 mm 0.06 in1.5 mm
04:36 AM 48.7°F9.3°C 46.8°F8.2°C 93% 3.8 mph SE6.1 kmh SE 7.4 mph11.9 kmh 29.62 in1003.0 mb 0.00 in0.0 mm 0.00 in0.0 mm 0.06 in1.5 mm
04:31 AM 48.7°F9.3°C 46.8°F8.2°C 93% 3.8 mph SSE6.1 kmh SSE 7.4 mph11.9 kmh 29.62 in1003.0 mb 0.00 in0.0 mm 0.00 in0.0 mm 0.06 in1.5 mm
04:26 AM 48.9°F9.4°C 46.9°F8.3°C 93% 3.1 mph SE5.0 kmh SE 5.4 mph8.7 kmh 29.62 in1003.0 mb 0.00 in0.0 mm 0.00 in0.0 mm 0.06 in1.5 mm
04:21 AM 48.9°F9.4°C 46.9°F8.3°C 93% 2.9 mph ESE4.7 kmh ESE 7.4 mph11.9 kmh 29.62 in1003.0 mb 0.00 in0.0 mm 0.00 in0.0 mm 0.06 in1.5 mm
04:16 AM 49.1°F9.5°C 46.9°F8.3°C 92% 2.7 mph SE4.3 kmh SE 5.4 mph8.7 kmh 29.62 in1003.0 mb 0.00 in0.0 mm 0.00 in0.0 mm 0.06 in1.5 mm
04:11 AM 49.3°F9.6°C 47.1°F8.4°C 92% 3.1 mph SE5.0 kmh SE 6.3 mph10.1 kmh 29.63 in1003.4 mb 0.00 in0.0 mm 0.00 in0.0 mm 0.06 in1.5 mm
04:06 AM 49.5°F9.7°C 47.3°F8.5°C 92% 2.7 mph SE4.3 kmh SE 5.4 mph8.7 kmh 29.62 in1003.0 mb 0.00 in0.0 mm 0.00 in0.0 mm 0.06 in1.5 mm
04:01 AM 49.5°F9.7°C 47.3°F8.5°C 92% 2.9 mph SE4.7 kmh SE 5.4 mph8.7 kmh 29.63 in1003.4 mb 0.00 in0.0 mm 0.00 in0.0 mm 0.06 in1.5 mm
03:56 AM 49.6°F9.8°C 47.5°F8.6°C 92% 3.1 mph SE5.0 kmh SE 5.4 mph8.7 kmh 29.63 in1003.4 mb 0.00 in0.0 mm 0.00 in0.0 mm 0.06 in1.5 mm
03:51 AM 49.8°F9.9°C 47.8°F8.8°C 93% 3.1 mph SE5.0 kmh SE 5.4 mph8.7 kmh 29.62 in1003.0 mb 0.00 in0.0 mm 0.00 in0.0 mm 0.06 in1.5 mm
03:46 AM 49.8°F9.9°C 47.8°F8.8°C 93% 2.2 mph SE3.5 kmh SE 5.4 mph8.7 kmh 29.62 in1003.0 mb 0.00 in0.0 mm 0.00 in0.0 mm 0.06 in1.5 mm
03:41 AM 50.0°F10.0°C 48.0°F8.9°C 93% 2.5 mph SE4.0 kmh SE 7.4 mph11.9 kmh 29.63 in1003.4 mb 0.00 in0.0 mm 0.00 in0.0 mm 0.06 in1.5 mm
03:36 AM 50.2°F10.1°C 48.0°F8.9°C 92% 4.0 mph SE6.4 kmh SE 7.4 mph11.9 kmh 29.63 in1003.4 mb 0.00 in0.0 mm 0.00 in0.0 mm 0.06 in1.5 mm
03:31 AM 50.2°F10.1°C 48.2°F9.0°C 93% 2.9 mph S4.7 kmh S 10.5 mph16.9 kmh 29.63 in1003.4 mb 0.00 in0.0 mm 0.00 in0.0 mm 0.06 in1.5 mm
03:26 AM 50.4°F10.2°C 48.4°F9.1°C 93% 2.9 mph ESE4.7 kmh ESE 5.4 mph8.7 kmh 29.63 in1003.4 mb 0.00 in0.0 mm 0.00 in0.0 mm 0.06 in1.5 mm
03:21 AM 50.4°F10.2°C 48.4°F9.1°C 93% 3.1 mph SSE5.0 kmh SSE 7.4 mph11.9 kmh 29.63 in1003.4 mb 0.00 in0.0 mm 0.00 in0.0 mm 0.06 in1.5 mm
03:16 AM 50.5°F10.3°C 48.6°F9.2°C 93% 2.9 mph SE4.7 kmh SE 7.4 mph11.9 kmh 29.63 in1003.4 mb 0.00 in0.0 mm 0.00 in0.0 mm 0.06 in1.5 mm
03:11 AM 50.5°F10.3°C 48.6°F9.2°C 93% 3.8 mph S6.1 kmh S 6.3 mph10.1 kmh 29.64 in1003.7 mb 0.00 in0.0 mm 0.00 in0.0 mm 0.06 in1.5 mm
03:06 AM 50.7°F10.4°C 48.7°F9.3°C 93% 3.8 mph SE6.1 kmh SE 8.5 mph13.7 kmh 29.64 in1003.7 mb 0.00 in0.0 mm 0.00 in0.0 mm 0.06 in1.5 mm
03:01 AM 50.7°F10.4°C 48.7°F9.3°C 93% 2.9 mph S4.7 kmh S 5.4 mph8.7 kmh 29.64 in1003.7 mb 0.00 in0.0 mm 0.00 in0.0 mm 0.06 in1.5 mm
02:56 AM 50.7°F10.4°C 48.7°F9.3°C 93% 2.7 mph SE4.3 kmh SE 8.5 mph13.7 kmh 29.64 in1003.7 mb 0.00 in0.0 mm 0.00 in0.0 mm 0.06 in1.5 mm
02:51 AM 50.9°F10.5°C 48.9°F9.4°C 93% 2.2 mph SE3.5 kmh SE 8.5 mph13.7 kmh 29.64 in1003.7 mb 0.00 in0.0 mm 0.00 in0.0 mm 0.06 in1.5 mm
02:46 AM 51.1°F10.6°C 49.1°F9.5°C 93% 2.0 mph SSE3.2 kmh SSE 7.4 mph11.9 kmh 29.64 in1003.7 mb 0.00 in0.0 mm 0.00 in0.0 mm 0.06 in1.5 mm
02:41 AM 51.1°F10.6°C 49.1°F9.5°C 93% 4.3 mph SE6.9 kmh SE 9.6 mph15.4 kmh 29.64 in1003.7 mb 0.00 in0.0 mm 0.00 in0.0 mm 0.06 in1.5 mm
02:36 AM 51.1°F10.6°C 49.1°F9.5°C 93% 5.6 mph S9.0 kmh S 10.5 mph16.9 kmh 29.64 in1003.7 mb 0.00 in0.0 mm 0.00 in0.0 mm 0.06 in1.5 mm
02:31 AM 51.3°F10.7°C 49.3°F9.6°C 93% 5.6 mph SSE9.0 kmh SSE 8.5 mph13.7 kmh 29.63 in1003.4 mb 0.00 in0.0 mm 0.00 in0.0 mm 0.06 in1.5 mm
02:26 AM 51.3°F10.7°C 49.3°F9.6°C 93% 6.3 mph SE10.1 kmh SE 12.8 mph20.6 kmh 29.63 in1003.4 mb 0.00 in0.0 mm 0.00 in0.0 mm 0.06 in1.5 mm
02:21 AM 51.3°F10.7°C 49.3°F9.6°C 93% 5.1 mph SE8.2 kmh SE 12.8 mph20.6 kmh 29.63 in1003.4 mb 0.00 in0.0 mm 0.00 in0.0 mm 0.06 in1.5 mm
02:16 AM 51.4°F10.8°C 49.5°F9.7°C 93% 5.8 mph SE9.3 kmh SE 14.8 mph23.8 kmh 29.63 in1003.4 mb 0.00 in0.0 mm 0.00 in0.0 mm 0.06 in1.5 mm
02:11 AM 51.4°F10.8°C 49.5°F9.7°C 93% 5.8 mph SSE9.3 kmh SSE 10.5 mph16.9 kmh 29.63 in1003.4 mb 0.00 in0.0 mm 0.00 in0.0 mm 0.06 in1.5 mm
02:06 AM 51.6°F10.9°C 49.6°F9.8°C 93% 5.8 mph SSE9.3 kmh SSE 11.6 mph18.7 kmh 29.62 in1003.0 mb 0.00 in0.0 mm 0.00 in0.0 mm 0.06 in1.5 mm
02:01 AM 51.8°F11.0°C 49.8°F9.9°C 93% 5.8 mph SE9.3 kmh SE 9.6 mph15.4 kmh 29.62 in1003.0 mb 0.00 in0.0 mm 0.00 in0.0 mm 0.06 in1.5 mm
01:56 AM 51.8°F11.0°C 49.8°F9.9°C 93% 6.0 mph S9.7 kmh S 10.5 mph16.9 kmh 29.62 in1003.0 mb 0.00 in0.0 mm 0.00 in0.0 mm 0.06 in1.5 mm
01:51 AM 52.0°F11.1°C 50.0°F10.0°C 93% 5.6 mph SSE9.0 kmh SSE 10.5 mph16.9 kmh 29.62 in1003.0 mb 0.00 in0.0 mm 0.00 in0.0 mm 0.06 in1.5 mm
01:46 AM 52.2°F11.2°C 50.2°F10.1°C 93% 5.1 mph S8.2 kmh S 12.8 mph20.6 kmh 29.62 in1003.0 mb 0.00 in0.0 mm 0.00 in0.0 mm 0.06 in1.5 mm
01:41 AM 52.2°F11.2°C 50.2°F10.1°C 93% 2.7 mph SE4.3 kmh SE 8.5 mph13.7 kmh 29.62 in1003.0 mb 0.00 in0.0 mm 0.00 in0.0 mm 0.06 in1.5 mm
01:36 AM 52.3°F11.3°C 50.4°F10.2°C 93% 2.7 mph SE4.3 kmh SE 8.5 mph13.7 kmh 29.62 in1003.0 mb 0.00 in0.0 mm 0.00 in0.0 mm 0.06 in1.5 mm
01:31 AM 52.5°F11.4°C 50.5°F10.3°C 93% 3.8 mph S6.1 kmh S 12.8 mph20.6 kmh 29.62 in1003.0 mb 0.00 in0.0 mm 0.00 in0.0 mm 0.06 in1.5 mm
01:26 AM 52.5°F11.4°C 50.5°F10.3°C 93% 3.1 mph S5.0 kmh S 7.4 mph11.9 kmh 29.62 in1003.0 mb 0.00 in0.0 mm 0.00 in0.0 mm 0.06 in1.5 mm
01:21 AM 52.5°F11.4°C 50.5°F10.3°C 93% 4.3 mph SE6.9 kmh SE 11.6 mph18.7 kmh 29.61 in1002.7 mb 0.00 in0.0 mm 0.00 in0.0 mm 0.06 in1.5 mm
01:16 AM 52.7°F11.5°C 50.7°F10.4°C 93% 4.7 mph SW7.6 kmh SW 11.6 mph18.7 kmh 29.62 in1003.0 mb 0.00 in0.0 mm 0.00 in0.0 mm 0.06 in1.5 mm
01:11 AM 52.9°F11.6°C 50.9°F10.5°C 93% 6.0 mph SW9.7 kmh SW 11.6 mph18.7 kmh 29.61 in1002.7 mb 0.00 in0.0 mm 0.00 in0.0 mm 0.06 in1.5 mm
01:06 AM 52.9°F11.6°C 51.3°F10.7°C 94% 4.3 mph S6.9 kmh S 11.6 mph18.7 kmh 29.61 in1002.7 mb 0.00 in0.0 mm 0.00 in0.0 mm 0.06 in1.5 mm
01:01 AM 52.9°F11.6°C 51.3°F10.7°C 94% 1.8 mph SSE2.9 kmh SSE 7.4 mph11.9 kmh 29.61 in1002.7 mb 0.00 in0.0 mm 0.00 in0.0 mm 0.06 in1.5 mm
12:56 AM 52.9°F11.6°C 51.3°F10.7°C 94% 5.4 mph SSE8.7 kmh SSE 10.5 mph16.9 kmh 29.61 in1002.7 mb 0.01 in0.3 mm 0.00 in0.0 mm 0.06 in1.5 mm
12:51 AM 52.9°F11.6°C 51.3°F10.7°C 94% 3.6 mph SE5.8 kmh SE 8.5 mph13.7 kmh 29.61 in1002.7 mb 0.01 in0.3 mm 0.00 in0.0 mm 0.06 in1.5 mm
12:46 AM 52.9°F11.6°C 50.9°F10.5°C 93% 5.6 mph S9.0 kmh S 15.9 mph25.6 kmh 29.61 in1002.7 mb 0.01 in0.3 mm 0.00 in0.0 mm 0.06 in1.5 mm
12:41 AM 52.9°F11.6°C 51.3°F10.7°C 94% 6.9 mph SE11.1 kmh SE 14.8 mph23.8 kmh 29.61 in1002.7 mb 0.01 in0.3 mm 0.00 in0.0 mm 0.06 in1.5 mm
12:36 AM 53.1°F11.7°C 51.4°F10.8°C 94% 6.5 mph SE10.5 kmh SE 11.6 mph18.7 kmh 29.61 in1002.7 mb 0.01 in0.3 mm 0.00 in0.0 mm 0.06 in1.5 mm
12:31 AM 53.1°F11.7°C 51.4°F10.8°C 94% 4.3 mph SSE6.9 kmh SSE 9.6 mph15.4 kmh 29.60 in1002.4 mb 0.01 in0.3 mm 0.00 in0.0 mm 0.06 in1.5 mm
12:26 AM 53.1°F11.7°C 51.4°F10.8°C 94% 6.5 mph SE10.5 kmh SE 13.9 mph22.4 kmh 29.61 in1002.7 mb 0.02 in0.5 mm 0.00 in0.0 mm 0.06 in1.5 mm
12:21 AM 53.1°F11.7°C 51.4°F10.8°C 94% 2.9 mph S4.7 kmh S 7.4 mph11.9 kmh 29.60 in1002.4 mb 0.03 in0.8 mm 0.00 in0.0 mm 0.06 in1.5 mm
12:16 AM 53.1°F11.7°C 51.1°F10.6°C 93% 4.9 mph S7.9 kmh S 12.8 mph20.6 kmh 29.60 in1002.4 mb 0.04 in1.0 mm 0.00 in0.0 mm 0.06 in1.5 mm
12:11 AM 53.1°F11.7°C 51.1°F10.6°C 93% 4.3 mph SSW6.9 kmh SSW 8.5 mph13.7 kmh 29.59 in1002.0 mb 0.05 in1.3 mm 0.00 in0.0 mm 0.06 in1.5 mm
12:06 AM 53.1°F11.7°C 51.1°F10.6°C 93% 4.5 mph SSE7.2 kmh SSE 10.5 mph16.9 kmh 29.59 in1002.0 mb 0.05 in1.3 mm 0.00 in0.0 mm 0.06 in1.5 mm
12:01 AM 53.1°F11.7°C 51.1°F10.6°C 93% 4.3 mph SW6.9 kmh SW 10.5 mph16.9 kmh 29.59 in1002.0 mb 0.06 in1.5 mm 3.60 in91.4 mm 0.06 in1.5 mm